Decoded Metar for LFRI (LA ROCHE-SUR-YON in FRANCE) (IATA:EDM) | Meteo·Mobile Aviation Weather
aviador You're here:

LFRI Decoded Metar

LA ROCHE-SUR-YON in FRANCE
Report Time2018-09-22 18:30:00
UTC Time2018-09-22 18:55:05
Flight Rules ifr IFR
Wind240° at 10 kt
W.Decomp.*RWY 28: 7.9 kt HW 6.2 kt LCW
W.Rank240° ranks 4
Current wind is above 240° avg. (7.5)
Visibility9999 m
Phenomena:N/A
Clouds:Overcast 009 Hf
Expected CloudBase > 800 ft AGL from Temp-Dew spread
Ceiling900 ft
Temp20°C (ISA +6)
Dew Point18°C (88% RH)
AAT19.2°C
QNH1020 hPa
Density Alt991 ft
Elevation299 ft
Report Wrong Elevation
Raw Report
METAR LFRI 221830Z AUTO 24010KT 9999 OVC009 20/18 Q1020 TEMPO 2500
-RADZ OVC004=

Extra information for LFRI:More info

Metar Taf Metar & Taf Last 4 Metars F.Rules Stats Wind Profile Meteogram Temp Stats Airport Information Weather charts Add Link Nearby VenuesMetar ALERT Operation Metar Decoded Social comments